Time;durP1;ratioP1;P1;durP2;ratioP2;P2;SDS_P1;SDS_P2;PMS_P1;PMS_P2;Temp;Humidity;BMP_temperature;BMP_pressure;BME280_temperature;BME280_humidity;BME280_pressure;Samples;Min_cycle;Max_cycle;Signal;HPM_P1;HPM_P2
2022/05/22 00:00:24;;;;;;;6.57;1.67;;;14.60;92.30;;;;;;5034109;28;20426;-50
2022/05/22 00:02:51;;;;;;;5.73;2.40;;;14.20;92.10;;;;;;5034280;28;20436;-50
2022/05/22 00:05:21;;;;;;;3.80;1.53;;;13.80;92.00;;;;;;5034491;28;20996;-51
2022/05/22 00:07:48;;;;;;;9.10;2.00;;;14.00;92.20;;;;;;5034348;28;20960;-51
2022/05/22 00:10:16;;;;;;;11.10;2.50;;;13.90;92.20;;;;;;5034103;28;20488;-49
2022/05/22 00:12:43;;;;;;;6.20;2.30;;;14.50;92.60;;;;;;5034299;28;20433;-50
2022/05/22 00:15:12;;;;;;;6.53;2.43;;;14.30;92.70;;;;;;5033986;28;20463;-50
2022/05/22 00:17:41;;;;;;;4.97;1.73;;;13.90;92.40;;;;;;5034292;28;20896;-50
2022/05/22 00:20:09;;;;;;;4.63;1.83;;;14.10;92.80;;;;;;5033847;28;20446;-50
2022/05/22 00:22:36;;;;;;;6.60;1.93;;;14.00;92.70;;;;;;5034140;28;20495;-51
2022/05/22 00:25:05;;;;;;;7.67;2.33;;;13.70;92.60;;;;;;5034341;28;20466;-50
2022/05/22 00:27:32;;;;;;;5.80;2.40;;;14.10;92.80;;;;;;5034366;28;20435;-50
2022/05/22 00:29:59;;;;;;;6.33;2.20;;;14.10;93.00;;;;;;5033803;28;20482;-50
2022/05/22 00:32:25;;;;;;;4.50;1.87;;;14.10;93.10;;;;;;5033969;28;20474;-50
2022/05/22 00:34:53;;;;;;;5.10;2.07;;;14.00;93.00;;;;;;5032428;28;20878;-51
2022/05/22 00:37:21;;;;;;;8.73;2.23;;;13.90;93.10;;;;;;5033633;28;20435;-50
2022/05/22 00:39:49;;;;;;;5.70;2.00;;;14.40;93.40;;;;;;5033470;28;20466;-51
2022/05/22 00:42:19;;;;;;;6.70;1.87;;;14.20;93.20;;;;;;5032473;28;20458;-51
2022/05/22 00:44:46;;;;;;;5.33;1.80;;;13.70;93.00;;;;;;5032170;28;20441;-51
2022/05/22 00:47:13;;;;;;;8.93;1.97;;;14.50;93.40;;;;;;5033630;28;20434;-51
2022/05/22 00:49:43;;;;;;;6.37;2.00;;;14.40;93.40;;;;;;5033477;28;20451;-50
2022/05/22 00:52:16;;;;;;;5.37;2.00;;;14.10;93.30;;;;;;5033981;28;20446;-51
2022/05/22 00:54:48;;;;;;;6.33;2.13;;;14.10;93.30;;;;;;5032319;28;20473;-50
2022/05/22 00:57:20;;;;;;;9.43;2.03;;;14.00;93.30;;;;;;5032314;28;20449;-51
2022/05/22 00:59:50;;;;;;;4.00;2.20;;;14.00;93.30;;;;;;5031878;28;20462;-49
2022/05/22 01:02:18;;;;;;;4.73;2.03;;;14.50;93.60;;;;;;5033149;28;20470;-50
2022/05/22 01:04:49;;;;;;;4.43;1.90;;;14.20;93.50;;;;;;5031776;28;20487;-49
2022/05/22 01:07:18;;;;;;;6.30;2.20;;;13.80;93.40;;;;;;5032036;28;20466;-49
2022/05/22 01:09:45;;;;;;;6.17;2.30;;;14.20;93.70;;;;;;5031638;28;20493;-50
2022/05/22 01:12:16;;;;;;;6.90;2.00;;;14.00;93.60;;;;;;5033246;28;20434;-50
2022/05/22 01:14:47;;;;;;;5.00;1.90;;;13.50;93.40;;;;;;5031832;28;20520;-51
2022/05/22 01:17:15;;;;;;;6.07;2.40;;;14.30;93.90;;;;;;5031030;28;20462;-50
2022/05/22 01:19:53;;;;;;;8.20;2.30;;;13.40;93.50;;;;;;5032683;28;20444;-51
2022/05/22 01:22:21;;;;;;;4.63;2.50;;;14.30;94.20;;;;;;5031836;28;20484;-50
2022/05/22 01:24:49;;;;;;;6.20;1.93;;;14.00;94.10;;;;;;5031701;28;20997;-50
2022/05/22 01:27:17;;;;;;;6.20;2.30;;;14.20;94.60;;;;;;5032793;28;20437;-51
2022/05/22 01:30:12;;;;;;;12.03;2.83;;;13.90;94.60;;;;;;5031880;28;20819;-50
2022/05/22 01:32:41;;;;;;;5.13;2.27;;;13.60;94.60;;;;;;5031531;28;20440;-50
2022/05/22 01:35:10;;;;;;;12.30;2.03;;;13.60;94.60;;;;;;5031471;28;20471;-50
2022/05/22 01:37:38;;;;;;;9.13;2.27;;;13.50;94.70;;;;;;5031498;28;20545;-50
2022/05/22 01:40:10;;;;;;;7.43;1.63;;;13.50;94.90;;;;;;5031236;28;20925;-50
2022/05/22 01:42:39;;;;;;;14.63;2.50;;;13.60;95.10;;;;;;5031526;28;20456;-52
2022/05/22 01:45:09;;;;;;;3.30;1.70;;;13.50;95.10;;;;;;5031297;28;20476;-50
2022/05/22 01:47:37;;;;;;;7.50;2.30;;;13.50;95.20;;;;;;5031372;28;20535;-50
2022/05/22 01:50:05;;;;;;;3.43;2.00;;;13.80;95.40;;;;;;5030343;28;20947;-51
2022/05/22 01:52:31;;;;;;;5.63;2.47;;;13.50;95.50;;;;;;5031177;28;20548;-49
2022/05/22 01:55:00;;;;;;;5.87;2.10;;;13.90;95.90;;;;;;5031044;28;20644;-50
2022/05/22 01:57:29;;;;;;;9.07;2.90;;;13.60;95.80;;;;;;5030899;28;20451;-50
2022/05/22 01:59:56;;;;;;;4.53;1.90;;;13.30;95.90;;;;;;5030539;28;20818;-49
2022/05/22 02:02:24;;;;;;;5.67;2.10;;;13.30;96.10;;;;;;5030659;28;20475;-50
2022/05/22 02:04:54;;;;;;;9.23;2.00;;;13.50;96.30;;;;;;5030895;28;20852;-50
2022/05/22 02:10:10;;;;;;;5.87;2.17;;;13.20;96.30;;;;;;5030568;28;20507;-50
2022/05/22 02:12:37;;;;;;;3.93;2.27;;;13.20;96.50;;;;;;5030825;28;20425;-50
2022/05/22 02:15:07;;;;;;;8.53;1.90;;;13.70;96.80;;;;;;5030907;28;20547;-50
2022/05/22 02:17:34;;;;;;;16.07;8.70;;;13.30;96.60;;;;;;5030690;28;20456;-48
2022/05/22 02:20:01;;;;;;;9.43;3.10;;;12.80;96.40;;;;;;5030715;28;20889;-50
2022/05/22 02:22:40;;;;;;;8.10;2.40;;;13.80;97.10;;;;;;5030902;28;20448;-48
2022/05/22 02:25:08;;;;;;;9.67;2.40;;;13.20;96.80;;;;;;5030762;28;20527;-49
2022/05/22 02:27:36;;;;;;;6.80;2.30;;;13.30;97.00;;;;;;5031915;28;20405;-50
2022/05/22 02:30:04;;;;;;;5.00;2.73;;;13.80;97.20;;;;;;5030228;28;20481;-49
2022/05/22 02:32:31;;;;;;;6.83;3.00;;;13.10;96.90;;;;;;5030106;28;20541;-49
2022/05/22 02:34:57;;;;;;;9.00;2.30;;;13.90;97.60;;;;;;5030531;28;21020;-50
2022/05/22 02:37:24;;;;;;;10.70;2.40;;;13.10;97.10;;;;;;5030677;28;20547;-49
2022/05/22 02:39:51;;;;;;;6.63;2.23;;;13.30;97.30;;;;;;5030251;28;20941;-50
2022/05/22 02:42:40;;;;;;;6.47;2.03;;;13.30;97.40;;;;;;5032172;28;20947;-50
2022/05/22 02:45:12;;;;;;;7.07;2.50;;;13.80;97.80;;;;;;5030482;28;20536;-50
2022/05/22 02:47:39;;;;;;;6.40;2.43;;;13.40;97.60;;;;;;5030411;28;20816;-50
2022/05/22 02:50:08;;;;;;;4.90;2.83;;;13.10;97.60;;;;;;5030021;28;20532;-49
2022/05/22 02:52:35;;;;;;;4.73;2.30;;;13.30;97.70;;;;;;5031780;28;20802;-49
2022/05/22 02:55:02;;;;;;;10.20;2.00;;;13.80;98.10;;;;;;5030425;28;21005;-50
2022/05/22 02:57:29;;;;;;;4.77;1.97;;;13.20;97.90;;;;;;5030412;28;20450;-50
2022/05/22 03:00:06;;;;;;;5.20;2.20;;;13.70;98.30;;;;;;5029992;28;20452;-50
2022/05/22 03:02:35;;;;;;;7.10;2.17;;;13.40;98.40;;;;;;5033976;28;20832;-50
2022/05/22 03:05:01;;;;;;;4.90;2.60;;;12.90;98.00;;;;;;5034365;28;20569;-49
2022/05/22 03:07:28;;;;;;;11.57;2.67;;;13.30;98.50;;;;;;5034427;28;20449;-50
2022/05/22 03:09:59;;;;;;;10.53;2.37;;;13.10;98.50;;;;;;5033935;28;20473;-48
2022/05/22 03:12:30;;;;;;;7.90;2.50;;;13.10;98.60;;;;;;5034382;28;20430;-51
2022/05/22 03:15:00;;;;;;;7.20;2.50;;;12.90;98.90;;;;;;5034348;28;20477;-49
2022/05/22 03:17:30;;;;;;;9.57;2.60;;;13.70;99.30;;;;;;5034118;28;20459;-48
2022/05/22 03:19:59;;;;;;;7.17;2.13;;;13.30;99.30;;;;;;5033734;28;20445;-49
2022/05/22 03:22:26;;;;;;;4.33;2.20;;;13.50;99.50;;;;;;5034151;28;21035;-50
2022/05/22 03:24:53;;;;;;;5.50;2.20;;;12.80;99.30;;;;;;5033949;28;20497;-49
2022/05/22 03:27:21;;;;;;;9.77;3.00;;;13.10;99.50;;;;;;5033976;28;20451;-50
2022/05/22 03:29:50;;;;;;;7.47;2.97;;;13.60;99.90;;;;;;5033358;28;20598;-50
2022/05/22 03:32:17;;;;;;;5.43;2.27;;;12.90;99.90;;;;;;5033920;28;20445;-50
2022/05/22 03:34:45;;;;;;;7.30;2.57;;;13.60;99.90;;;;;;5035157;28;20564;-50
2022/05/22 03:37:14;;;;;;;9.70;2.77;;;13.30;99.90;;;;;;5033851;28;20476;-51
2022/05/22 03:39:41;;;;;;;10.00;3.03;;;13.40;99.90;;;;;;5033440;28;21047;-51
2022/05/22 03:42:10;;;;;;;9.63;2.30;;;12.80;99.90;;;;;;5033706;28;20456;-51
2022/05/22 03:44:38;;;;;;;4.23;2.27;;;13.40;99.90;;;;;;5033802;28;20568;-51
2022/05/22 03:47:06;;;;;;;5.20;2.30;;;13.70;99.90;;;;;;5033686;28;20454;-49
2022/05/22 03:49:41;;;;;;;5.57;2.13;;;13.80;99.90;;;;;;5033140;28;20568;-50
2022/05/22 03:52:09;;;;;;;8.27;2.73;;;13.90;99.90;;;;;;5033563;28;20470;-49
2022/05/22 03:54:36;;;;;;;9.93;2.30;;;13.70;99.90;;;;;;5033374;28;20472;-50
2022/05/22 03:57:03;;;;;;;10.57;3.03;;;13.50;99.90;;;;;;5033611;28;20447;-49
2022/05/22 03:59:34;;;;;;;7.70;2.80;;;13.80;99.90;;;;;;5033205;28;20447;-49
2022/05/22 04:02:03;;;;;;;7.33;2.87;;;13.80;99.90;;;;;;5033364;28;20488;-50
2022/05/22 04:04:29;;;;;;;6.77;2.63;;;13.70;99.90;;;;;;5056989;22;20498;-44
2022/05/22 04:06:59;;;;;;;5.77;2.70;;;14.00;99.90;;;;;;5033382;28;20444;-44
2022/05/22 04:09:30;;;;;;;11.63;3.13;;;13.90;99.90;;;;;;5033119;28;20953;-44
2022/05/22 04:12:08;;;;;;;11.10;2.87;;;13.90;99.90;;;;;;5032888;28;20785;-44
2022/05/22 04:14:36;;;;;;;9.67;3.00;;;13.90;99.90;;;;;;5033365;28;20478;-44
2022/05/22 04:17:07;;;;;;;8.70;2.57;;;13.90;99.90;;;;;;5033273;28;20448;-44
2022/05/22 04:19:36;;;;;;;9.60;3.07;;;13.90;99.90;;;;;;5033564;28;20841;-44
2022/05/22 04:22:05;;;;;;;9.40;3.90;;;13.80;99.90;;;;;;5033176;28;20443;-44
2022/05/22 04:27:20;;;;;;;9.33;2.80;;;13.40;99.90;;;;;;5033100;28;20450;-43
2022/05/22 04:29:48;;;;;;;7.73;3.10;;;14.10;99.90;;;;;;5032618;28;20485;-44
2022/05/22 04:32:14;;;;;;;6.83;3.63;;;13.50;99.90;;;;;;5032831;28;20457;-44
2022/05/22 04:34:52;;;;;;;7.80;2.60;;;14.50;99.90;;;;;;5032904;28;20887;-44
2022/05/22 04:37:19;;;;;;;8.23;2.60;;;14.80;99.90;;;;;;5033107;28;20445;-44
2022/05/22 04:39:55;;;;;;;8.90;2.30;;;14.70;99.90;;;;;;5032354;28;20453;-44
2022/05/22 04:42:22;;;;;;;11.17;2.50;;;14.90;99.80;;;;;;5032901;28;20929;-44
2022/05/22 04:44:49;;;;;;;7.27;2.70;;;15.20;99.60;;;;;;5032874;28;20484;-44
2022/05/22 04:47:24;;;;;;;10.53;2.60;;;15.20;99.30;;;;;;5032818;28;20470;-44
2022/05/22 04:50:18;;;;;;;8.13;2.80;;;15.20;99.00;;;;;;5032365;28;20505;-44
2022/05/22 04:53:14;;;;;;;10.47;3.20;;;15.50;99.20;;;;;;5032673;28;20977;-44
2022/05/22 04:56:06;;;;;;;8.67;2.70;;;15.60;99.00;;;;;;5030756;28;20486;-44
2022/05/22 04:58:42;;;;;;;7.93;2.40;;;15.20;98.30;;;;;;5032317;28;20549;-44
2022/05/22 05:01:12;;;;;;;12.10;2.97;;;15.70;98.40;;;;;;5032469;28;20812;-45
2022/05/22 05:04:01;;;;;;;4.57;2.50;;;15.70;98.20;;;;;;5032376;28;20845;-45
2022/05/22 05:06:29;;;;;;;10.70;3.50;;;15.40;97.90;;;;;;5032558;28;20486;-44
2022/05/22 05:08:57;;;;;;;5.53;2.50;;;15.60;98.00;;;;;;5032089;28;20447;-44
2022/05/22 05:11:35;;;;;;;8.07;2.73;;;14.90;97.60;;;;;;5032523;28;20561;-44
2022/05/22 05:14:07;;;;;;;9.30;2.80;;;15.50;97.80;;;;;;5033236;28;20577;-44
2022/05/22 05:16:34;;;;;;;9.90;3.53;;;15.90;98.00;;;;;;5032354;28;20546;-44
2022/05/22 05:19:06;;;;;;;5.97;2.83;;;15.50;97.70;;;;;;5031969;28;20552;-44
2022/05/22 05:21:36;;;;;;;10.37;3.17;;;16.10;97.80;;;;;;5033909;28;20454;-44
2022/05/22 05:24:06;;;;;;;8.37;3.37;;;15.60;97.50;;;;;;5032458;28;20471;-44
2022/05/22 05:26:35;;;;;;;9.50;3.03;;;15.80;97.40;;;;;;5033311;28;20542;-44
2022/05/22 05:29:04;;;;;;;12.47;3.50;;;15.90;97.30;;;;;;5031840;28;20493;-44
2022/05/22 05:31:39;;;;;;;13.10;3.57;;;16.20;97.40;;;;;;5031880;28;20856;-44
2022/05/22 05:34:05;;;;;;;11.30;3.40;;;15.80;97.00;;;;;;5031839;28;21037;-44
2022/05/22 05:36:40;;;;;;;8.17;2.93;;;15.60;96.70;;;;;;5031776;28;20871;-44
2022/05/22 05:39:21;;;;;;;8.93;2.90;;;15.80;96.70;;;;;;5032856;28;20432;-44
2022/05/22 05:41:57;;;;;;;11.30;2.97;;;16.40;97.10;;;;;;5031815;28;20453;-44
2022/05/22 05:44:29;;;;;;;12.73;2.90;;;15.80;96.90;;;;;;5031544;28;20571;-44
2022/05/22 05:47:06;;;;;;;10.70;5.10;;;16.10;97.10;;;;;;5032954;28;20484;-44
2022/05/22 05:49:41;;;;;;;9.30;2.73;;;16.30;97.20;;;;;;5033062;28;20971;-44
2022/05/22 05:52:27;;;;;;;6.97;2.60;;;16.20;97.10;;;;;;5033708;28;20483;-44
2022/05/22 05:54:58;;;;;;;7.07;2.70;;;16.20;96.80;;;;;;5033113;28;20478;-44
2022/05/22 05:57:58;;;;;;;7.70;2.90;;;16.00;96.70;;;;;;5035033;28;20824;-44
2022/05/22 06:00:26;;;;;;;7.07;2.40;;;16.00;96.60;;;;;;5033136;28;20451;-43
2022/05/22 06:02:53;;;;;;;8.23;2.37;;;16.00;96.80;;;;;;5033029;28;20463;-44
2022/05/22 06:05:21;;;;;;;11.87;2.80;;;16.10;96.80;;;;;;5033303;28;20479;-44
2022/05/22 06:07:51;;;;;;;6.33;3.00;;;16.40;96.90;;;;;;5035024;28;20942;-44
2022/05/22 06:10:21;;;;;;;7.63;2.60;;;16.60;96.80;;;;;;5033587;28;20821;-44
2022/05/22 06:12:58;;;;;;;9.47;3.07;;;16.40;96.60;;;;;;5035295;28;20429;-43
2022/05/22 06:15:25;;;;;;;9.17;3.10;;;16.50;96.30;;;;;;5033183;28;20850;-44
2022/05/22 06:17:56;;;;;;;7.93;3.33;;;16.60;96.20;;;;;;5033293;28;20450;-44
2022/05/22 06:20:25;;;;;;;6.23;2.43;;;16.60;96.10;;;;;;5032748;28;20450;-44
2022/05/22 06:22:52;;;;;;;7.10;3.10;;;16.60;96.10;;;;;;5033385;28;21158;-44
2022/05/22 06:25:39;;;;;;;12.40;3.20;;;16.70;96.10;;;;;;5033665;28;20446;-44
2022/05/22 06:28:26;;;;;;;8.00;2.73;;;16.70;95.90;;;;;;5031872;28;20951;-45
2022/05/22 06:31:12;;;;;;;8.87;2.73;;;16.90;95.80;;;;;;5031343;28;20988;-44
2022/05/22 06:34:17;;;;;;;7.07;2.70;;;16.90;95.70;;;;;;5026815;28;20472;-44
2022/05/22 06:36:44;;;;;;;9.70;3.03;;;17.00;95.60;;;;;;5032517;28;20447;-43
2022/05/22 06:42:25;;;;;;;8.20;2.77;;;16.50;95.20;;;;;;5032335;28;20468;-44
2022/05/22 06:45:04;;;;;;;11.30;3.43;;;16.90;95.20;;;;;;5030760;28;20889;-43
2022/05/22 06:47:50;;;;;;;5.80;2.70;;;17.30;95.40;;;;;;5032604;28;20856;-44
2022/05/22 06:50:43;;;;;;;10.53;2.87;;;16.80;95.00;;;;;;5031734;28;20471;-44
2022/05/22 06:53:28;;;;;;;10.70;3.47;;;17.20;95.00;;;;;;5032735;28;20442;-44
2022/05/22 06:55:54;;;;;;;9.83;2.80;;;17.40;94.90;;;;;;5032222;28;20459;-43
2022/05/22 06:58:40;;;;;;;9.17;2.73;;;17.20;94.70;;;;;;5031944;28;20562;-44
2022/05/22 07:01:16;;;;;;;6.77;2.70;;;17.30;94.60;;;;;;5032090;28;20786;-44
2022/05/22 07:04:03;;;;;;;10.67;2.77;;;17.40;94.50;;;;;;5031785;28;20479;-44
2022/05/22 07:07:08;;;;;;;6.03;2.40;;;17.30;94.40;;;;;;5025796;28;20447;-45
2022/05/22 07:09:43;;;;;;;7.07;2.37;;;17.40;94.30;;;;;;5030306;28;20452;-43
2022/05/22 07:12:18;;;;;;;6.77;2.47;;;17.30;94.20;;;;;;5030559;28;20508;-43
2022/05/22 07:15:09;;;;;;;5.77;2.73;;;17.90;94.40;;;;;;5028833;28;20838;-45
2022/05/22 07:17:57;;;;;;;9.47;2.60;;;17.70;94.20;;;;;;5031722;28;20435;-44
2022/05/22 07:20:56;;;;;;;10.30;2.77;;;17.80;94.20;;;;;;5030105;28;20460;-44
2022/05/22 07:23:31;;;;;;;10.60;2.27;;;17.70;93.90;;;;;;5030337;28;20555;-42
2022/05/22 07:26:09;;;;;;;7.87;2.20;;;17.80;93.70;;;;;;5030154;28;20449;-43
2022/05/22 07:28:49;;;;;;;4.87;2.27;;;17.40;93.50;;;;;;5029890;28;20490;-42
2022/05/22 07:31:40;;;;;;;9.03;2.33;;;18.10;93.80;;;;;;5030277;28;20487;-44
2022/05/22 07:34:42;;;;;;;6.80;2.53;;;17.70;93.60;;;;;;5031303;28;20459;-43
2022/05/22 07:37:41;;;;;;;4.57;2.00;;;17.70;93.50;;;;;;5024356;28;20472;-44
2022/05/22 07:40:26;;;;;;;4.90;2.13;;;17.60;93.40;;;;;;5031067;28;20453;-45
2022/05/22 07:43:16;;;;;;;6.00;2.43;;;17.80;93.50;;;;;;5030141;28;20532;-44
2022/05/22 07:46:00;;;;;;;6.93;2.40;;;17.60;93.50;;;;;;5031393;28;20450;-43
2022/05/22 07:48:43;;;;;;;5.90;1.53;;;17.40;93.40;;;;;;5034120;28;20432;-42
2022/05/22 07:51:30;;;;;;;5.77;1.90;;;17.30;93.60;;;;;;5034788;28;20466;-44
2022/05/22 07:54:12;;;;;;;10.23;2.53;;;17.30;94.00;;;;;;5033725;28;20936;-42
2022/05/22 07:56:54;;;;;;;9.10;2.80;;;17.10;93.70;;;;;;5033503;28;20462;-44
2022/05/22 07:59:30;;;;;;;5.77;2.10;;;17.00;93.70;;;;;;5033015;28;20447;-42
2022/05/22 08:02:15;;;;;;;4.60;1.97;;;17.30;93.70;;;;;;5033413;28;20864;-43
2022/05/22 08:04:46;;;;;;;11.77;2.47;;;17.50;93.50;;;;;;5032907;28;20898;-42
2022/05/22 08:07:36;;;;;;;8.07;2.47;;;17.30;93.30;;;;;;5033274;28;20841;-42
2022/05/22 08:10:18;;;;;;;6.00;1.93;;;17.20;93.30;;;;;;5033084;28;20458;-41
2022/05/22 08:12:48;;;;;;;6.60;2.50;;;17.00;93.20;;;;;;5032968;28;20545;-43
2022/05/22 08:15:22;;;;;;;6.40;1.60;;;17.40;93.40;;;;;;5033305;28;20479;-43
2022/05/22 08:17:53;;;;;;;4.33;1.73;;;17.00;92.90;;;;;;5033566;28;20551;-44
2022/05/22 08:20:21;;;;;;;5.40;1.60;;;17.40;93.10;;;;;;5032893;28;20871;-42
2022/05/22 08:23:07;;;;;;;4.87;1.53;;;17.40;93.00;;;;;;5033323;28;20455;-45
2022/05/22 08:25:43;;;;;;;3.27;1.33;;;17.30;92.70;;;;;;5033280;28;20830;-43
2022/05/22 08:28:11;;;;;;;6.23;1.77;;;17.60;92.70;;;;;;5033019;28;20541;-45
2022/05/22 08:30:39;;;;;;;6.80;2.40;;;17.60;92.50;;;;;;5032963;28;20498;-43
2022/05/22 08:33:07;;;;;;;5.73;1.53;;;17.90;92.80;;;;;;5032661;28;20524;-44
2022/05/22 08:35:35;;;;;;;3.70;1.50;;;17.40;92.30;;;;;;5033935;28;20463;-43
2022/05/22 08:38:02;;;;;;;7.90;1.73;;;17.50;92.30;;;;;;5034096;28;20432;-43
2022/05/22 08:40:41;;;;;;;5.97;1.80;;;17.60;92.40;;;;;;5033347;28;20438;-42
2022/05/22 08:43:12;;;;;;;8.13;2.43;;;17.50;92.40;;;;;;5034193;28;20440;-44
2022/05/22 08:45:42;;;;;;;3.33;1.30;;;17.60;92.50;;;;;;5033935;28;20539;-42
2022/05/22 08:48:14;;;;;;;6.93;2.20;;;17.90;92.50;;;;;;5034063;28;20440;-42
2022/05/22 08:50:43;;;;;;;5.37;2.07;;;18.00;92.30;;;;;;5033320;28;20444;-43
2022/05/22 08:53:19;;;;;;;4.10;1.33;;;18.20;92.30;;;;;;5033952;28;20853;-43
2022/05/22 08:58:57;;;;;;;8.53;2.47;;;18.40;91.20;;;;;;5033731;28;20438;-43
2022/05/22 09:01:41;;;;;;;4.00;1.87;;;18.40;90.90;;;;;;5034006;28;20431;-43
2022/05/22 09:04:25;;;;;;;5.30;2.13;;;18.60;90.30;;;;;;5033508;28;20476;-45
2022/05/22 09:07:02;;;;;;;4.60;1.77;;;18.80;90.30;;;;;;5033838;28;20437;-45
2022/05/22 09:09:32;;;;;;;3.50;1.83;;;18.90;89.20;;;;;;5033341;28;20438;-45
2022/05/22 09:12:12;;;;;;;7.97;2.03;;;18.60;88.60;;;;;;5033514;28;20474;-44
2022/05/22 09:14:42;;;;;;;6.10;1.60;;;18.90;88.70;;;;;;5033633;28;20474;-44
2022/05/22 09:17:13;;;;;;;8.37;2.17;;;18.80;88.50;;;;;;5033404;28;20532;-46
2022/05/22 09:19:44;;;;;;;4.03;2.00;;;18.70;88.40;;;;;;5033806;28;20434;-46
2022/05/22 09:22:22;;;;;;;7.27;1.60;;;19.00;88.80;;;;;;5033699;28;20429;-46
2022/05/22 09:25:00;;;;;;;4.03;1.60;;;19.10;88.30;;;;;;5033910;28;20970;-46
2022/05/22 09:27:39;;;;;;;4.70;1.70;;;19.20;88.50;;;;;;5033210;28;20531;-46
2022/05/22 09:30:11;;;;;;;3.27;1.77;;;19.40;88.70;;;;;;5033156;28;20977;-44
2022/05/22 09:32:52;;;;;;;5.83;1.87;;;19.00;87.90;;;;;;5033066;28;20588;-45
2022/05/22 09:35:29;;;;;;;4.57;1.90;;;19.00;88.60;;;;;;5032939;28;20454;-45
2022/05/22 09:38:10;;;;;;;4.70;1.60;;;19.00;88.30;;;;;;5033327;28;20442;-45
2022/05/22 09:40:45;;;;;;;4.40;1.70;;;18.80;88.20;;;;;;5032319;28;20441;-46
2022/05/22 09:43:47;;;;;;;5.67;1.60;;;19.40;88.90;;;;;;5033760;28;20587;-46
2022/05/22 09:46:33;;;;;;;6.70;1.40;;;19.40;88.10;;;;;;5030524;28;20452;-45
2022/05/22 09:49:15;;;;;;;6.60;1.53;;;19.20;87.60;;;;;;5033362;28;20434;-45
2022/05/22 09:51:51;;;;;;;4.97;2.00;;;19.30;86.60;;;;;;5033721;28;20487;-45
2022/05/22 09:54:42;;;;;;;5.17;1.33;;;19.10;85.80;;;;;;5033793;28;20490;-46
2022/05/22 09:57:25;;;;;;;7.20;2.07;;;19.50;85.60;;;;;;5033818;28;20818;-45
2022/05/22 10:00:04;;;;;;;7.97;1.87;;;19.50;85.00;;;;;;5034315;28;20439;-45
2022/05/22 10:02:50;;;;;;;4.80;1.90;;;20.00;84.80;;;;;;5033225;28;20947;-46
2022/05/22 10:05:28;;;;;;;4.77;2.13;;;19.70;83.90;;;;;;5033533;28;20474;-42
2022/05/22 10:08:02;;;;;;;3.97;1.70;;;19.70;83.70;;;;;;5032489;28;20440;-42
2022/05/22 10:10:34;;;;;;;5.60;1.60;;;19.40;83.20;;;;;;5031782;28;20497;-41
2022/05/22 10:13:08;;;;;;;4.57;1.13;;;19.60;83.40;;;;;;5032300;28;20978;-42
2022/05/22 10:15:47;;;;;;;2.83;1.27;;;19.30;82.00;;;;;;5032947;28;20965;-42
2022/05/22 10:18:29;;;;;;;4.63;1.60;;;19.30;82.00;;;;;;5032976;28;20434;-42
2022/05/22 10:21:05;;;;;;;8.50;1.80;;;19.40;82.40;;;;;;5032739;28;20627;-42
2022/05/22 10:23:55;;;;;;;6.43;1.60;;;19.60;82.40;;;;;;5031840;28;20882;-44
2022/05/22 10:26:33;;;;;;;6.83;1.30;;;19.50;81.80;;;;;;5031957;28;20466;-42
2022/05/22 10:29:06;;;;;;;5.40;1.43;;;19.50;81.50;;;;;;5032077;28;20449;-42
2022/05/22 10:31:40;;;;;;;6.07;1.67;;;19.30;80.90;;;;;;5032589;28;20764;-43
2022/05/22 10:34:14;;;;;;;3.87;1.40;;;19.40;80.20;;;;;;5032798;28;20473;-43
2022/05/22 10:36:44;;;;;;;5.27;1.60;;;19.40;80.00;;;;;;5033210;28;20927;-43
2022/05/22 10:39:13;;;;;;;8.40;1.50;;;19.60;80.60;;;;;;5031872;28;20491;-42
2022/05/22 10:44:33;;;;;;;4.83;1.40;;;20.00;80.70;;;;;;5031652;28;20581;-44
2022/05/22 10:47:02;;;;;;;4.80;2.23;;;19.70;80.00;;;;;;5031729;28;20440;-43
2022/05/22 10:49:39;;;;;;;2.57;1.53;;;19.60;79.90;;;;;;5032063;28;20956;-45
2022/05/22 10:52:08;;;;;;;5.40;1.70;;;19.60;79.40;;;;;;5031797;28;20478;-43
2022/05/22 10:54:36;;;;;;;5.80;1.30;;;19.80;79.60;;;;;;5031168;28;20448;-42
2022/05/22 10:57:12;;;;;;;5.17;1.67;;;19.70;79.70;;;;;;5031305;28;20466;-44
2022/05/22 10:59:39;;;;;;;4.93;1.63;;;19.70;79.00;;;;;;5031901;28;20481;-42
2022/05/22 11:02:14;;;;;;;6.10;1.33;;;19.70;79.20;;;;;;5032397;28;20956;-43
2022/05/22 11:04:44;;;;;;;4.00;1.93;;;19.80;79.20;;;;;;5032235;28;20469;-43
2022/05/22 11:07:12;;;;;;;3.70;1.13;;;19.70;77.40;;;;;;5030535;28;20462;-42
2022/05/22 11:09:46;;;;;;;2.63;1.30;;;20.00;77.10;;;;;;5031912;28;20473;-43
2022/05/22 11:12:18;;;;;;;4.10;1.67;;;20.00;77.10;;;;;;5031066;28;20466;-43
2022/05/22 11:14:45;;;;;;;3.60;1.20;;;19.90;77.50;;;;;;5031680;28;20450;-41
2022/05/22 11:17:15;;;;;;;3.63;1.43;;;20.00;77.50;;;;;;5032415;28;20437;-43
2022/05/22 11:19:46;;;;;;;3.57;1.40;;;20.00;77.30;;;;;;5031390;28;20424;-41
2022/05/22 11:22:27;;;;;;;2.80;1.43;;;19.90;76.70;;;;;;5032426;28;20443;-44
2022/05/22 11:25:04;;;;;;;5.17;1.03;;;20.30;76.00;;;;;;5035889;28;20455;-44
2022/05/22 11:27:42;;;;;;;3.93;1.47;;;19.70;74.70;;;;;;5035247;28;20452;-44
2022/05/22 11:30:16;;;;;;;6.57;1.73;;;19.80;74.80;;;;;;5034934;28;20783;-44
2022/05/22 11:32:59;;;;;;;6.13;2.27;;;19.90;75.70;;;;;;5035341;28;20493;-42
2022/05/22 11:35:34;;;;;;;5.87;1.63;;;19.60;74.30;;;;;;5035537;28;20872;-45
2022/05/22 11:38:21;;;;;;;4.53;1.50;;;19.70;74.10;;;;;;5035351;28;20421;-42
2022/05/22 11:40:53;;;;;;;4.40;1.40;;;19.70;73.70;;;;;;5035235;28;20526;-42
2022/05/22 11:43:35;;;;;;;5.03;2.00;;;19.90;74.60;;;;;;5035385;28;20439;-45
2022/05/22 11:46:05;;;;;;;7.73;1.60;;;19.60;75.10;;;;;;5035456;28;21054;-43
2022/05/22 11:48:58;;;;;;;4.47;1.20;;;19.90;74.10;;;;;;5034800;28;20752;-42
2022/05/22 11:51:44;;;;;;;4.97;1.60;;;19.50;73.60;;;;;;5031384;28;20454;-44
2022/05/22 11:54:26;;;;;;;2.87;1.30;;;19.50;73.20;;;;;;5035229;28;20487;-43
2022/05/22 11:57:03;;;;;;;3.80;1.40;;;19.70;74.10;;;;;;5034999;28;20439;-43
2022/05/22 11:59:57;;;;;;;3.03;1.83;;;19.50;73.80;;;;;;5034591;28;20435;-41
2022/05/22 12:02:31;;;;;;;3.70;1.80;;;20.00;73.10;;;;;;5035557;28;20435;-43
2022/05/22 12:05:22;;;;;;;2.70;1.03;;;20.00;72.40;;;;;;5034719;28;20991;-44
2022/05/22 12:08:09;;;;;;;4.47;1.70;;;20.10;68.80;;;;;;5034348;28;20450;-45
2022/05/22 12:10:41;;;;;;;3.30;1.27;;;20.00;69.10;;;;;;5034233;28;20454;-41
2022/05/22 12:13:15;;;;;;;3.13;1.03;;;20.20;69.20;;;;;;5034675;28;20478;-45
2022/05/22 12:15:48;;;;;;;2.90;1.00;;;20.40;69.20;;;;;;5034678;28;20470;-43
2022/05/22 12:18:37;;;;;;;4.67;1.53;;;20.80;69.30;;;;;;5034807;28;20442;-42
2022/05/22 12:21:13;;;;;;;7.03;1.30;;;20.30;68.90;;;;;;5035551;28;20428;-43
2022/05/22 12:23:51;;;;;;;4.03;1.00;;;20.10;69.30;;;;;;5034703;28;20793;-46
2022/05/22 12:26:19;;;;;;;4.07;2.00;;;19.80;67.50;;;;;;5034628;28;20447;-42
2022/05/22 12:28:49;;;;;;;5.00;1.30;;;19.60;68.70;;;;;;5032345;28;20455;-42
2022/05/22 12:31:20;;;;;;;2.60;1.40;;;19.90;69.80;;;;;;5033826;28;20454;-44
2022/05/22 12:33:48;;;;;;;3.10;1.37;;;19.40;69.10;;;;;;5033528;28;20486;-41
2022/05/22 12:36:21;;;;;;;4.30;1.50;;;19.80;68.20;;;;;;5033444;28;20490;-42
2022/05/22 12:38:55;;;;;;;3.30;1.07;;;20.10;68.60;;;;;;5033304;28;20448;-43
2022/05/22 12:41:34;;;;;;;5.90;2.03;;;19.80;67.40;;;;;;5033767;28;20430;-43
2022/05/22 12:44:03;;;;;;;3.27;1.13;;;20.10;66.70;;;;;;5033774;28;20451;-42
2022/05/22 12:46:30;;;;;;;3.83;1.13;;;19.70;65.20;;;;;;5033361;28;20928;-43
2022/05/22 12:49:07;;;;;;;6.10;1.37;;;20.30;66.00;;;;;;5034419;28;20432;-43
2022/05/22 12:51:36;;;;;;;5.27;1.47;;;20.30;64.10;;;;;;5033707;28;20420;-44
2022/05/22 12:54:20;;;;;;;2.17;1.20;;;20.40;64.40;;;;;;5033308;28;20846;-43
2022/05/22 12:56:51;;;;;;;3.90;1.10;;;20.50;64.00;;;;;;5035054;28;20424;-42
2022/05/22 12:59:23;;;;;;;3.33;1.03;;;20.30;64.70;;;;;;5033401;28;20585;-42
2022/05/22 13:01:51;;;;;;;3.03;1.20;;;20.60;65.30;;;;;;5033671;28;20450;-42
2022/05/22 13:04:28;;;;;;;4.10;1.20;;;20.10;64.20;;;;;;5033409;28;20478;-41
2022/05/22 13:06:59;;;;;;;2.13;1.10;;;20.10;64.00;;;;;;5033422;28;20435;-42
2022/05/22 13:09:37;;;;;;;4.07;1.27;;;20.20;64.50;;;;;;5032889;28;20432;-43
2022/05/22 13:12:10;;;;;;;5.90;1.70;;;20.50;65.40;;;;;;5032425;28;20499;-42
2022/05/22 13:14:43;;;;;;;4.30;1.50;;;20.40;65.90;;;;;;5033033;28;21003;-42
2022/05/22 13:17:11;;;;;;;2.53;1.43;;;20.60;65.20;;;;;;5032917;28;20434;-43
2022/05/22 13:19:49;;;;;;;2.90;1.30;;;20.60;65.40;;;;;;5032859;28;20458;-43
2022/05/22 13:22:27;;;;;;;2.90;1.53;;;20.50;64.60;;;;;;5033014;28;20447;-43
2022/05/22 13:24:56;;;;;;;4.03;2.07;;;20.50;64.10;;;;;;5032755;28;20476;-43
2022/05/22 13:27:25;;;;;;;7.57;1.63;;;20.40;63.90;;;;;;5032871;28;20425;-41
2022/05/22 13:29:58;;;;;;;4.20;1.53;;;20.80;64.70;;;;;;5032358;28;20437;-41
2022/05/22 13:32:31;;;;;;;3.97;1.50;;;20.80;64.60;;;;;;5033116;28;20805;-45
2022/05/22 13:34:57;;;;;;;3.60;1.40;;;21.00;65.10;;;;;;5032715;28;20456;-43